Time;durP1;ratioP1;P1;durP2;ratioP2;P2;SDS_P1;SDS_P2;PMS_P1;PMS_P2;Temp;Humidity;BMP_temperature;BMP_pressure;BME280_temperature;BME280_humidity;BME280_pressure;Samples;Min_cycle;Max_cycle;Signal;HPM_P1;HPM_P2
2021/12/07 00:02:07;;;;;;;3.60;2.60;;;2.60;99.90;;;;;;5092386;28;20192;-58
2021/12/07 00:04:33;;;;;;;4.47;3.20;;;2.60;99.90;;;;;;5092498;28;20172;-57
2021/12/07 00:06:59;;;;;;;2.90;2.57;;;2.60;99.90;;;;;;5102923;28;20239;-57
2021/12/07 00:09:25;;;;;;;3.63;2.63;;;2.60;99.90;;;;;;5105090;28;20553;-57
2021/12/07 00:11:51;;;;;;;3.97;3.17;;;2.60;99.90;;;;;;5092196;28;20184;-58
2021/12/07 00:14:25;;;;;;;3.83;3.00;;;2.60;99.90;;;;;;5092306;28;20238;-57
2021/12/07 00:16:53;;;;;;;4.60;2.93;;;2.60;99.90;;;;;;5092597;28;20191;-58
2021/12/07 00:19:19;;;;;;;3.00;2.53;;;2.60;99.90;;;;;;5091847;28;20200;-58
2021/12/07 00:21:45;;;;;;;3.17;2.73;;;2.50;99.90;;;;;;5092246;28;20233;-58
2021/12/07 00:24:12;;;;;;;6.70;3.03;;;2.50;99.90;;;;;;5092037;28;20635;-58
2021/12/07 00:26:39;;;;;;;3.95;2.63;;;2.50;99.90;;;;;;5091433;28;20249;-58
2021/12/07 00:29:06;;;;;;;5.03;2.93;;;2.40;99.90;;;;;;5092474;28;20176;-58
2021/12/07 00:31:54;;;;;;;4.63;2.80;;;2.40;99.90;;;;;;5092251;28;20177;-58
2021/12/07 00:34:43;;;;;;;4.35;3.17;;;2.40;99.90;;;;;;5091418;28;20176;-58
2021/12/07 00:37:09;;;;;;;5.00;2.80;;;2.30;99.90;;;;;;5092344;28;20291;-58
2021/12/07 00:39:35;;;;;;;4.17;2.97;;;2.20;99.90;;;;;;5091460;28;20647;-58
2021/12/07 00:42:01;;;;;;;4.57;3.07;;;2.10;99.90;;;;;;5091946;28;20188;-58
2021/12/07 00:44:28;;;;;;;4.90;2.97;;;2.00;99.90;;;;;;5091182;28;20580;-58
2021/12/07 00:46:54;;;;;;;4.63;3.00;;;2.00;99.90;;;;;;5091267;28;20216;-57
2021/12/07 00:49:20;;;;;;;4.63;3.20;;;1.90;99.90;;;;;;5091396;28;20188;-58
2021/12/07 00:51:46;;;;;;;4.50;3.03;;;1.90;99.90;;;;;;5090278;28;20281;-57
2021/12/07 00:54:12;;;;;;;5.20;3.20;;;1.90;99.90;;;;;;5090679;28;20638;-57
2021/12/07 00:56:38;;;;;;;3.90;2.80;;;1.90;99.90;;;;;;5091281;28;20220;-58
2021/12/07 00:59:04;;;;;;;4.67;2.67;;;2.00;99.90;;;;;;5091297;28;20184;-58
2021/12/07 01:01:30;;;;;;;5.73;2.93;;;2.00;99.90;;;;;;5090436;28;20309;-57
2021/12/07 01:03:55;;;;;;;3.83;2.90;;;2.00;99.90;;;;;;5091322;28;20701;-58
2021/12/07 01:06:32;;;;;;;2.93;2.63;;;2.00;99.90;;;;;;5090566;28;20615;-58
2021/12/07 01:25:17;;;;;;;4.30;2.63;;;2.10;99.90;;;;;;5097009;28;20291;-58
2021/12/07 01:27:45;;;;;;;3.67;2.80;;;2.10;99.90;;;;;;5097964;28;20183;-58
2021/12/07 01:30:18;;;;;;;3.92;2.53;;;2.20;99.90;;;;;;5098176;28;20631;-58
2021/12/07 01:33:37;;;;;;;3.50;2.63;;;2.20;99.90;;;;;;5097528;28;20646;-58
2021/12/07 01:51:50;;;;;;;2.80;2.50;;;2.10;99.90;;;;;;5095846;28;20567;-58
2021/12/07 02:00:13;;;;;;;3.63;2.37;;;2.20;99.90;;;;;;5074874;28;20196;-58
2021/12/07 02:02:39;;;;;;;2.93;2.50;;;2.20;99.90;;;;;;5089204;28;20551;-58
2021/12/07 02:05:06;;;;;;;2.97;2.27;;;2.20;99.90;;;;;;5096795;28;20195;-58
2021/12/07 02:07:32;;;;;;;2.23;2.00;;;2.20;99.90;;;;;;5097947;28;20172;-58
2021/12/07 02:10:04;;;;;;;4.47;1.90;;;2.30;99.90;;;;;;5098010;28;20176;-58
2021/12/07 02:12:40;;;;;;;5.33;2.00;;;2.30;99.90;;;;;;5097939;28;20705;-58
2021/12/07 02:15:06;;;;;;;2.27;1.80;;;2.30;99.90;;;;;;5098177;28;20176;-59
2021/12/07 02:17:33;;;;;;;1.80;1.50;;;2.40;99.90;;;;;;5097903;28;20164;-58
2021/12/07 02:19:59;;;;;;;1.77;1.67;;;2.50;99.90;;;;;;5098001;28;20210;-58
2021/12/07 02:22:24;;;;;;;1.43;1.27;;;2.60;99.90;;;;;;5106348;28;20176;-58
2021/12/07 02:24:51;;;;;;;1.47;1.33;;;2.60;99.90;;;;;;5094891;28;20203;-58
2021/12/07 02:27:16;;;;;;;1.97;1.60;;;2.70;99.90;;;;;;5094619;28;20589;-58
2021/12/07 02:29:42;;;;;;;1.57;1.47;;;2.80;99.90;;;;;;5094572;28;20172;-58
2021/12/07 02:32:08;;;;;;;2.80;1.33;;;2.90;99.90;;;;;;5094723;28;20176;-58
2021/12/07 02:34:36;;;;;;;2.07;1.20;;;3.00;99.90;;;;;;5094498;28;20292;-58
2021/12/07 02:37:02;;;;;;;1.50;1.30;;;3.00;99.90;;;;;;5094590;28;20184;-58
2021/12/07 02:39:34;;;;;;;1.27;1.17;;;3.10;99.90;;;;;;5094394;28;20176;-58
2021/12/07 02:42:01;;;;;;;1.60;1.50;;;3.10;99.90;;;;;;5094548;28;20172;-58
2021/12/07 02:44:27;;;;;;;1.97;1.50;;;3.10;99.90;;;;;;5094323;28;20195;-58
2021/12/07 02:46:53;;;;;;;1.70;1.43;;;3.10;99.90;;;;;;5094336;28;20212;-58
2021/12/07 02:49:20;;;;;;;1.37;1.27;;;3.10;99.90;;;;;;5094166;28;20649;-58
2021/12/07 02:51:46;;;;;;;1.70;1.60;;;3.10;99.90;;;;;;5094150;28;20168;-58
2021/12/07 02:54:12;;;;;;;2.00;1.57;;;3.10;99.90;;;;;;5094094;28;20176;-58
2021/12/07 02:56:37;;;;;;;1.97;1.47;;;3.10;99.90;;;;;;5092849;28;20224;-59
2021/12/07 02:59:04;;;;;;;3.27;1.80;;;3.10;99.90;;;;;;5092875;28;20179;-58
2021/12/07 03:01:35;;;;;;;2.70;1.60;;;3.10;99.90;;;;;;5093595;28;20180;-58
2021/12/07 03:04:09;;;;;;;1.70;1.60;;;3.10;99.90;;;;;;5093271;28;20281;-58
2021/12/07 03:28:09;;;;;;;2.00;1.47;;;3.30;99.90;;;;;;5093891;28;20186;-58
2021/12/07 03:30:36;;;;;;;1.50;1.40;;;3.20;99.90;;;;;;5093215;28;20188;-58
2021/12/07 03:33:03;;;;;;;2.58;1.60;;;3.20;99.90;;;;;;5093362;28;20341;-58
2021/12/07 03:35:29;;;;;;;1.60;1.50;;;3.20;99.90;;;;;;5093362;28;20663;-58
2021/12/07 03:37:55;;;;;;;1.70;1.33;;;3.20;99.90;;;;;;5093330;28;20749;-58
2021/12/07 03:40:21;;;;;;;1.63;1.50;;;3.20;99.90;;;;;;5093105;28;20842;-58
2021/12/07 03:42:47;;;;;;;2.58;1.65;;;3.20;99.90;;;;;;5092722;28;20195;-58
2021/12/07 03:45:13;;;;;;;1.60;1.50;;;3.20;99.90;;;;;;5093135;28;20693;-58
2021/12/07 03:47:39;;;;;;;1.73;1.60;;;3.20;99.90;;;;;;5094092;28;20207;-58
2021/12/07 03:50:06;;;;;;;1.33;1.23;;;3.20;99.90;;;;;;5104362;28;20167;-58
2021/12/07 03:52:32;;;;;;;1.77;1.67;;;3.20;99.90;;;;;;5113286;28;20228;-58
2021/12/07 03:54:57;;;;;;;2.37;1.70;;;3.20;99.90;;;;;;5112979;28;20792;-58
2021/12/07 03:57:23;;;;;;;2.08;1.60;;;3.20;99.90;;;;;;5113257;28;20179;-58
2021/12/07 03:59:49;;;;;;;1.97;1.60;;;3.20;99.90;;;;;;5113435;28;20171;-58
2021/12/07 04:02:14;;;;;;;1.77;1.50;;;3.20;99.90;;;;;;5093732;28;20422;-58
2021/12/07 04:04:40;;;;;;;1.60;1.50;;;3.10;99.90;;;;;;5092730;28;20203;-58
2021/12/07 04:07:06;;;;;;;2.27;1.40;;;3.20;99.90;;;;;;5092718;28;20575;-59
2021/12/07 04:09:32;;;;;;;1.80;1.50;;;3.10;99.90;;;;;;5092569;28;20184;-58
2021/12/07 04:11:59;;;;;;;1.33;1.23;;;3.10;99.90;;;;;;5092694;28;20615;-58
2021/12/07 04:14:24;;;;;;;1.30;1.20;;;3.10;99.90;;;;;;5092538;28;20268;-58
2021/12/07 04:16:50;;;;;;;1.47;1.30;;;3.10;99.90;;;;;;5092727;28;20690;-58
2021/12/07 04:19:16;;;;;;;1.73;1.30;;;3.10;99.90;;;;;;5092447;28;20192;-58
2021/12/07 04:21:41;;;;;;;1.73;1.37;;;3.00;99.90;;;;;;5091883;28;20180;-58
2021/12/07 04:24:07;;;;;;;3.27;1.10;;;3.00;99.90;;;;;;5092363;28;20688;-58
2021/12/07 04:26:33;;;;;;;2.97;1.43;;;3.00;99.90;;;;;;5092296;28;20223;-58
2021/12/07 04:28:58;;;;;;;1.60;1.50;;;3.00;99.90;;;;;;5092326;28;20176;-58
2021/12/07 04:31:24;;;;;;;1.20;1.10;;;3.00;99.90;;;;;;5092270;28;20183;-58
2021/12/07 04:33:50;;;;;;;4.57;1.30;;;3.00;99.90;;;;;;5092335;28;20228;-58
2021/12/07 04:36:16;;;;;;;3.80;1.63;;;2.90;99.90;;;;;;5090923;28;20188;-57
2021/12/07 04:38:42;;;;;;;2.30;1.10;;;3.00;99.90;;;;;;5092238;28;20187;-58
2021/12/07 04:41:08;;;;;;;1.17;1.00;;;3.00;99.90;;;;;;5092220;28;20183;-58
2021/12/07 04:43:36;;;;;;;1.27;1.10;;;3.00;99.90;;;;;;5091890;28;20271;-58
2021/12/07 04:46:19;;;;;;;1.57;1.00;;;3.00;99.90;;;;;;5091836;28;20220;-58
2021/12/07 04:59:33;;;;;;;4.47;1.10;;;3.00;99.90;;;;;;5079355;28;20266;-59
2021/12/07 05:01:59;;;;;;;1.57;1.30;;;3.00;99.90;;;;;;5097943;28;20266;-58
2021/12/07 05:04:29;;;;;;;1.67;1.30;;;3.10;99.90;;;;;;5090302;28;20176;-58
2021/12/07 05:07:02;;;;;;;3.97;1.70;;;3.10;99.90;;;;;;5092027;28;20219;-56
2021/12/07 05:14:39;;;;;;;3.97;1.80;;;3.20;99.90;;;;;;5091628;28;20237;-57
2021/12/07 05:26:01;;;;;;;3.47;1.70;;;3.30;99.90;;;;;;5091298;28;20260;-58
2021/12/07 05:39:11;;;;;;;4.97;1.73;;;3.60;99.90;;;;;;5091220;28;20187;-58
2021/12/07 05:41:37;;;;;;;3.37;1.90;;;3.60;99.90;;;;;;5091077;28;20540;-59
2021/12/07 05:44:03;;;;;;;5.73;1.87;;;3.70;99.90;;;;;;5090754;28;20180;-59
2021/12/07 05:46:29;;;;;;;3.37;1.70;;;3.70;99.90;;;;;;5091093;28;20735;-59
2021/12/07 05:48:55;;;;;;;1.73;1.55;;;3.70;99.90;;;;;;5091275;28;20184;-59
2021/12/07 05:51:20;;;;;;;5.10;2.93;;;3.70;99.90;;;;;;5091284;28;20438;-59
2021/12/07 05:53:46;;;;;;;2.80;1.80;;;3.70;99.90;;;;;;5091116;28;20184;-59
2021/12/07 05:56:11;;;;;;;3.35;1.80;;;3.70;99.90;;;;;;5091166;28;20220;-59
2021/12/07 05:58:37;;;;;;;2.85;1.52;;;3.70;99.90;;;;;;5076783;28;20193;-59
2021/12/07 06:01:03;;;;;;;2.97;1.95;;;3.70;99.90;;;;;;5095282;28;20180;-59
2021/12/07 06:03:29;;;;;;;6.80;1.75;;;3.70;99.90;;;;;;5094380;28;20187;-59
2021/12/07 06:05:55;;;;;;;1.85;1.45;;;3.60;99.90;;;;;;5095063;28;20744;-58
2021/12/07 06:08:21;;;;;;;2.83;1.53;;;3.60;99.90;;;;;;5094758;28;20180;-59
2021/12/07 06:10:47;;;;;;;4.13;1.60;;;3.60;99.90;;;;;;5094845;28;20184;-59
2021/12/07 06:13:13;;;;;;;4.35;1.38;;;3.50;99.90;;;;;;5095136;28;20195;-59
2021/12/07 06:15:43;;;;;;;3.53;1.90;;;3.50;99.90;;;;;;5094809;28;20278;-59
2021/12/07 06:18:08;;;;;;;3.90;1.90;;;3.50;99.90;;;;;;5094598;28;20191;-59
2021/12/07 06:20:34;;;;;;;6.00;1.80;;;3.50;99.90;;;;;;5094956;28;20176;-59
2021/12/07 06:22:59;;;;;;;3.07;1.40;;;3.40;99.90;;;;;;5094544;28;20180;-59
2021/12/07 06:25:25;;;;;;;1.83;1.47;;;3.50;99.90;;;;;;5094689;28;20216;-59
2021/12/07 06:27:51;;;;;;;3.47;1.60;;;3.50;99.90;;;;;;5094266;28;20651;-59
2021/12/07 06:30:16;;;;;;;6.40;1.70;;;3.40;99.90;;;;;;5094439;28;20628;-59
2021/12/07 06:32:42;;;;;;;3.50;1.87;;;3.40;99.90;;;;;;5094676;28;20172;-59
2021/12/07 06:35:09;;;;;;;4.13;1.90;;;3.40;99.90;;;;;;5094648;28;20199;-59
2021/12/07 06:37:36;;;;;;;7.37;2.00;;;3.40;99.90;;;;;;5094381;28;20187;-59
2021/12/07 06:40:03;;;;;;;5.87;2.00;;;3.40;99.90;;;;;;5094555;28;20638;-59
2021/12/07 06:42:28;;;;;;;2.27;1.83;;;3.40;99.90;;;;;;5094226;28;20305;-58
2021/12/07 06:44:54;;;;;;;3.63;2.03;;;3.40;99.90;;;;;;5094429;28;20262;-59
2021/12/07 06:47:20;;;;;;;4.43;2.10;;;3.40;99.90;;;;;;5094267;28;20568;-59
2021/12/07 06:49:45;;;;;;;4.43;1.87;;;3.30;99.90;;;;;;5094321;28;20706;-59
2021/12/07 06:52:11;;;;;;;4.77;2.50;;;3.30;99.90;;;;;;5094401;28;20184;-59
2021/12/07 06:54:37;;;;;;;2.73;1.90;;;3.20;99.90;;;;;;5093839;28;20622;-59
2021/12/07 06:57:03;;;;;;;3.67;1.80;;;3.20;99.90;;;;;;5094205;28;20180;-59
2021/12/07 06:59:30;;;;;;;2.03;1.83;;;3.20;99.90;;;;;;5094071;28;20204;-59
2021/12/07 07:01:56;;;;;;;2.20;1.70;;;3.10;99.90;;;;;;5093938;28;20259;-59
2021/12/07 07:04:22;;;;;;;6.60;2.30;;;3.10;99.90;;;;;;5094105;28;20184;-60
2021/12/07 07:06:48;;;;;;;6.47;2.10;;;3.10;99.90;;;;;;5093634;28;20643;-59
2021/12/07 07:09:14;;;;;;;4.97;1.80;;;3.10;99.90;;;;;;5092972;28;20180;-56
2021/12/07 07:11:41;;;;;;;5.33;2.07;;;3.10;99.90;;;;;;5093794;28;20253;-56
2021/12/07 07:14:07;;;;;;;4.47;1.73;;;3.10;99.90;;;;;;5093925;28;20176;-57
2021/12/07 07:16:33;;;;;;;5.57;2.07;;;3.10;99.90;;;;;;5093686;28;20241;-56
2021/12/07 07:18:58;;;;;;;6.23;2.40;;;3.20;99.90;;;;;;5093827;28;20183;-56
2021/12/07 07:21:24;;;;;;;5.17;2.13;;;3.20;99.90;;;;;;5093715;28;20183;-57
2021/12/07 07:23:51;;;;;;;5.32;2.13;;;3.30;99.90;;;;;;5093640;28;20187;-56
2021/12/07 07:26:17;;;;;;;6.97;2.47;;;3.30;99.90;;;;;;5093548;28;20311;-57
2021/12/07 07:28:43;;;;;;;7.70;2.20;;;3.40;99.90;;;;;;5093668;28;20259;-56
2021/12/07 07:31:10;;;;;;;6.55;2.22;;;3.40;99.90;;;;;;5093571;28;20619;-57
2021/12/07 07:33:36;;;;;;;6.63;2.10;;;3.50;99.90;;;;;;5093294;28;20195;-57
2021/12/07 07:36:02;;;;;;;3.40;1.90;;;3.50;99.90;;;;;;5093531;28;20183;-56
2021/12/07 07:38:27;;;;;;;5.23;1.90;;;3.50;99.90;;;;;;5093295;28;20235;-56
2021/12/07 07:40:53;;;;;;;9.02;2.22;;;3.50;99.90;;;;;;5093425;28;20172;-56
2021/12/07 07:43:19;;;;;;;3.30;1.90;;;3.60;99.90;;;;;;5093165;28;20209;-57
2021/12/07 07:45:46;;;;;;;7.57;2.10;;;3.60;99.90;;;;;;5093129;28;20558;-56
2021/12/07 07:48:12;;;;;;;5.43;1.63;;;3.60;99.90;;;;;;5093199;28;20693;-56
2021/12/07 07:50:38;;;;;;;3.53;1.60;;;3.70;99.90;;;;;;5093005;28;20261;-57
2021/12/07 07:53:04;;;;;;;2.90;1.53;;;3.70;99.90;;;;;;5093212;28;20178;-56
2021/12/07 07:55:30;;;;;;;4.20;2.10;;;3.70;99.90;;;;;;5092780;28;20239;-56
2021/12/07 07:57:56;;;;;;;5.82;2.22;;;3.70;99.90;;;;;;5092933;28;20590;-56
2021/12/07 08:00:22;;;;;;;9.13;2.13;;;3.70;99.90;;;;;;5093028;28;20183;-57
2021/12/07 08:02:48;;;;;;;5.05;2.10;;;3.70;99.90;;;;;;5092838;28;20704;-56
2021/12/07 08:05:15;;;;;;;7.75;1.73;;;3.70;99.90;;;;;;5092777;28;20176;-57
2021/12/07 08:07:41;;;;;;;8.37;2.00;;;3.80;99.90;;;;;;5092756;28;20184;-57
2021/12/07 08:10:09;;;;;;;6.03;2.13;;;3.80;99.90;;;;;;5092690;28;20245;-56
2021/12/07 08:12:36;;;;;;;5.43;2.08;;;3.80;99.90;;;;;;5091504;28;20191;-56
2021/12/07 08:15:02;;;;;;;5.87;2.20;;;3.80;99.90;;;;;;5092723;28;20631;-56
2021/12/07 08:17:28;;;;;;;4.82;2.00;;;3.80;99.90;;;;;;5092579;28;20177;-57
2021/12/07 08:19:53;;;;;;;3.90;1.70;;;3.80;99.90;;;;;;5091865;28;20551;-57
2021/12/07 08:22:19;;;;;;;3.55;1.45;;;3.80;99.90;;;;;;5092503;28;20639;-57
2021/12/07 08:24:45;;;;;;;8.07;2.10;;;3.80;99.90;;;;;;5092531;28;20643;-56
2021/12/07 08:27:12;;;;;;;4.47;1.58;;;3.90;99.90;;;;;;5092517;28;20212;-57
2021/12/07 08:29:37;;;;;;;4.13;1.53;;;3.90;99.90;;;;;;5092269;28;20203;-57
2021/12/07 08:32:03;;;;;;;11.23;2.08;;;4.00;99.90;;;;;;5092511;28;20659;-57
2021/12/07 08:34:29;;;;;;;4.43;1.55;;;4.00;99.90;;;;;;5092285;28;20627;-57
2021/12/07 08:36:54;;;;;;;2.95;1.40;;;4.00;99.90;;;;;;5092262;28;20176;-56
2021/12/07 08:39:20;;;;;;;5.87;1.67;;;4.00;99.90;;;;;;5092336;28;20196;-57
2021/12/07 08:41:46;;;;;;;5.35;1.52;;;4.00;99.90;;;;;;5092351;28;20208;-56
2021/12/07 08:44:11;;;;;;;3.92;1.60;;;4.10;99.90;;;;;;5092264;28;20650;-57
2021/12/07 08:46:38;;;;;;;7.20;1.70;;;4.10;99.90;;;;;;5092025;28;20279;-57
2021/12/07 08:49:03;;;;;;;3.67;2.03;;;4.20;99.90;;;;;;5092079;28;20191;-56
2021/12/07 08:51:29;;;;;;;5.38;1.67;;;4.20;99.90;;;;;;5092019;28;20635;-57
2021/12/07 08:54:22;;;;;;;4.93;1.60;;;4.20;99.90;;;;;;5092181;28;20181;-56
2021/12/07 08:59:44;;;;;;;7.32;2.13;;;4.30;99.90;;;;;;5091973;28;20223;-57
2021/12/07 09:02:11;;;;;;;6.97;1.98;;;4.40;99.90;;;;;;5091933;28;20259;-57
2021/12/07 09:04:36;;;;;;;8.25;1.75;;;4.40;99.90;;;;;;5091892;28;20259;-57
2021/12/07 09:07:04;;;;;;;5.15;1.73;;;4.50;99.90;;;;;;5090730;28;20314;-57
2021/12/07 09:09:30;;;;;;;6.38;1.70;;;4.50;99.90;;;;;;5091699;28;20639;-57
2021/12/07 09:11:56;;;;;;;3.85;1.70;;;4.50;99.90;;;;;;5091794;28;20176;-57
2021/12/07 09:14:23;;;;;;;8.05;1.83;;;4.50;99.90;;;;;;5091772;28;20172;-58
2021/12/07 09:16:48;;;;;;;21.67;3.38;;;4.40;99.90;;;;;;5091795;28;20658;-57
2021/12/07 09:19:14;;;;;;;12.23;2.20;;;4.40;99.90;;;;;;5091832;28;20171;-57
2021/12/07 09:21:41;;;;;;;11.50;2.90;;;4.40;99.90;;;;;;5091776;28;20195;-57
2021/12/07 09:24:06;;;;;;;3.90;2.17;;;4.40;99.90;;;;;;5091878;28;20176;-57
2021/12/07 09:26:32;;;;;;;8.82;2.30;;;4.40;99.90;;;;;;5091425;28;20713;-57
2021/12/07 09:28:58;;;;;;;5.45;1.80;;;4.40;99.90;;;;;;5091783;28;20233;-57
2021/12/07 09:31:24;;;;;;;10.07;4.97;;;4.50;99.90;;;;;;5094174;28;20589;-57
2021/12/07 09:33:49;;;;;;;4.30;2.03;;;4.40;99.90;;;;;;5095842;28;20183;-57
2021/12/07 09:36:15;;;;;;;8.30;1.92;;;4.40;99.90;;;;;;5095817;28;20184;-57
2021/12/07 09:38:41;;;;;;;5.78;2.00;;;4.40;99.90;;;;;;5095672;28;20215;-57
2021/12/07 09:41:10;;;;;;;8.07;2.22;;;4.50;99.90;;;;;;5095792;28;20180;-57
2021/12/07 09:43:36;;;;;;;7.20;2.20;;;4.50;99.90;;;;;;5095453;28;20179;-58
2021/12/07 09:46:06;;;;;;;7.30;2.30;;;4.50;99.90;;;;;;5095569;28;20243;-57
2021/12/07 09:48:32;;;;;;;11.35;2.60;;;4.60;99.90;;;;;;5095329;28;20606;-57
2021/12/07 09:50:58;;;;;;;8.38;2.28;;;4.60;99.90;;;;;;5095598;28;20301;-57
2021/12/07 09:53:25;;;;;;;9.30;2.33;;;4.60;99.90;;;;;;5095390;28;20209;-58
2021/12/07 09:55:51;;;;;;;15.15;2.45;;;4.60;99.90;;;;;;5095192;28;20256;-57
2021/12/07 09:58:19;;;;;;;14.98;3.05;;;4.70;99.90;;;;;;5095420;28;20756;-57
2021/12/07 10:00:46;;;;;;;5.32;1.85;;;4.70;99.90;;;;;;5095247;28;20237;-57
2021/12/07 10:03:13;;;;;;;10.45;2.45;;;4.80;99.90;;;;;;5095175;28;20575;-57
2021/12/07 10:05:40;;;;;;;9.27;2.63;;;4.80;99.90;;;;;;5095021;28;20196;-57
2021/12/07 10:08:07;;;;;;;7.45;2.47;;;4.80;99.90;;;;;;5095143;28;20214;-57
2021/12/07 10:10:43;;;;;;;6.75;2.00;;;4.90;99.90;;;;;;5094972;28;20515;-57
2021/12/07 10:13:11;;;;;;;5.50;2.15;;;5.00;99.90;;;;;;5095007;28;20172;-57
2021/12/07 10:15:38;;;;;;;10.43;2.47;;;5.00;99.90;;;;;;5095016;28;20180;-57
2021/12/07 10:18:16;;;;;;;5.78;2.42;;;5.20;99.90;;;;;;5095013;28;20172;-57
2021/12/07 10:20:44;;;;;;;7.80;2.53;;;5.30;99.90;;;;;;5094973;28;20176;-57
2021/12/07 10:23:13;;;;;;;13.68;3.95;;;5.40;99.90;;;;;;5093535;28;20176;-57
2021/12/07 10:25:40;;;;;;;9.55;2.38;;;5.50;99.90;;;;;;5094722;28;20265;-58
2021/12/07 10:28:33;;;;;;;7.35;1.90;;;5.60;99.90;;;;;;5094642;28;20188;-58
2021/12/07 10:31:17;;;;;;;11.38;3.20;;;5.60;99.90;;;;;;5094808;28;20168;-58
2021/12/07 10:33:59;;;;;;;17.48;3.03;;;5.60;99.90;;;;;;5094765;28;20186;-57
2021/12/07 10:36:35;;;;;;;12.38;3.03;;;5.70;99.90;;;;;;5094719;28;20570;-57
2021/12/07 10:39:11;;;;;;;18.23;3.03;;;5.80;99.90;;;;;;5094712;28;20182;-57
2021/12/07 10:41:43;;;;;;;10.02;1.77;;;5.90;99.90;;;;;;5093997;28;20168;-57
2021/12/07 10:44:18;;;;;;;12.20;2.97;;;5.90;99.90;;;;;;5094162;28;20168;-57
2021/12/07 10:46:58;;;;;;;25.65;3.20;;;6.00;99.90;;;;;;5094313;28;20219;-57
2021/12/07 10:49:42;;;;;;;8.30;2.08;;;6.10;99.90;;;;;;5094404;28;20168;-57
2021/12/07 10:52:11;;;;;;;6.90;1.95;;;6.30;99.90;;;;;;5094262;28;20245;-57
2021/12/07 10:55:08;;;;;;;10.05;2.00;;;6.30;99.90;;;;;;5093911;28;20176;-57
2021/12/07 10:57:41;;;;;;;5.20;2.10;;;6.40;99.90;;;;;;5094193;28;20217;-57
2021/12/07 11:00:10;;;;;;;10.18;2.60;;;6.50;99.90;;;;;;5094166;28;20241;-57
2021/12/07 11:02:37;;;;;;;7.95;1.73;;;6.60;99.90;;;;;;5094123;28;20532;-57
2021/12/07 11:05:10;;;;;;;6.07;2.03;;;6.60;99.90;;;;;;5094245;28;20579;-57
2021/12/07 11:07:36;;;;;;;11.43;2.97;;;6.70;99.90;;;;;;5093997;28;20183;-57
2021/12/07 11:10:14;;;;;;;5.25;2.22;;;6.80;99.90;;;;;;5094014;28;20191;-57
2021/12/07 11:12:54;;;;;;;5.03;1.70;;;6.90;99.90;;;;;;5093904;28;20190;-57
2021/12/07 11:15:26;;;;;;;4.78;1.83;;;6.90;99.90;;;;;;5093976;28;20179;-57
2021/12/07 11:17:58;;;;;;;9.80;1.90;;;7.00;99.90;;;;;;5094052;28;20619;-57
2021/12/07 11:20:27;;;;;;;6.07;1.90;;;6.90;99.90;;;;;;5093977;28;20173;-57
2021/12/07 11:23:02;;;;;;;11.85;2.28;;;6.80;99.90;;;;;;5093959;28;20516;-58
2021/12/07 11:31:49;;;;;;;6.38;1.77;;;6.70;99.90;;;;;;5093504;28;20229;-57
2021/12/07 11:34:26;;;;;;;3.50;1.50;;;6.70;99.90;;;;;;5093560;28;20179;-57
2021/12/07 11:37:02;;;;;;;6.20;1.85;;;6.60;99.90;;;;;;5093612;28;20229;-57
2021/12/07 11:39:47;;;;;;;4.32;1.42;;;6.70;99.90;;;;;;5093184;28;20180;-57
2021/12/07 11:42:17;;;;;;;9.07;2.10;;;6.80;99.90;;;;;;5093369;28;20199;-57
2021/12/07 11:44:56;;;;;;;3.72;1.60;;;6.90;99.90;;;;;;5093111;28;20311;-57
2021/12/07 11:47:33;;;;;;;5.88;1.63;;;6.90;99.90;;;;;;5093230;28;20211;-57
2021/12/07 11:50:14;;;;;;;5.97;1.77;;;6.90;99.90;;;;;;5093319;28;20222;-57
2021/12/07 11:52:40;;;;;;;4.63;1.40;;;7.00;99.90;;;;;;5093068;28;20204;-57
2021/12/07 11:55:06;;;;;;;7.18;1.65;;;6.80;99.90;;;;;;5092961;28;20270;-57
2021/12/07 11:57:32;;;;;;;9.70;1.88;;;6.70;99.90;;;;;;5092963;28;20187;-58
2021/12/07 11:59:58;;;;;;;4.18;1.58;;;6.60;99.90;;;;;;5092993;28;20259;-57
2021/12/07 12:02:24;;;;;;;3.75;1.70;;;6.50;99.90;;;;;;5092923;28;20250;-57
2021/12/07 12:04:50;;;;;;;6.47;2.17;;;6.40;99.90;;;;;;5092903;28;20168;-57
2021/12/07 12:07:19;;;;;;;7.53;1.70;;;6.40;99.90;;;;;;5092810;28;20583;-57
2021/12/07 12:09:49;;;;;;;4.15;1.92;;;6.40;99.90;;;;;;5092668;28;20180;-57
2021/12/07 12:12:40;;;;;;;8.85;1.80;;;6.30;99.90;;;;;;5092875;28;20268;-57
2021/12/07 12:15:35;;;;;;;3.65;2.20;;;6.30;99.90;;;;;;5091572;28;20188;-59
2021/12/07 12:18:28;;;;;;;2.90;1.98;;;6.20;99.90;;;;;;5092798;28;20180;-57
2021/12/07 12:21:40;;;;;;;7.45;3.70;;;6.20;99.90;;;;;;5092760;28;20175;-59
2021/12/07 12:24:48;;;;;;;4.40;2.00;;;6.20;99.90;;;;;;5078954;28;20249;-57
2021/12/07 12:27:16;;;;;;;7.18;1.98;;;6.20;99.90;;;;;;5030048;28;20237;-59
2021/12/07 12:29:43;;;;;;;6.28;1.60;;;6.20;99.90;;;;;;5080413;28;20719;-59
2021/12/07 12:32:09;;;;;;;2.42;1.45;;;6.20;99.90;;;;;;5092389;28;20255;-59
2021/12/07 12:34:38;;;;;;;6.85;2.00;;;6.10;99.90;;;;;;5092459;28;20274;-59
2021/12/07 12:37:22;;;;;;;8.05;2.58;;;6.20;99.90;;;;;;5092440;28;20269;-59
2021/12/07 12:40:08;;;;;;;4.03;1.58;;;6.20;99.90;;;;;;5092344;28;20690;-57
2021/12/07 12:42:42;;;;;;;8.63;2.70;;;6.10;99.90;;;;;;5092334;28;20180;-59
2021/12/07 12:45:25;;;;;;;6.68;1.52;;;6.10;99.90;;;;;;5092167;28;20237;-57
2021/12/07 12:47:55;;;;;;;6.25;1.90;;;6.00;99.90;;;;;;5092511;28;20195;-57
2021/12/07 12:50:27;;;;;;;10.38;1.67;;;6.00;99.90;;;;;;5091061;28;20175;-57
2021/12/07 12:52:57;;;;;;;34.38;4.88;;;6.00;99.90;;;;;;5092397;28;20188;-57
2021/12/07 12:55:53;;;;;;;21.05;3.60;;;6.10;99.90;;;;;;5091955;28;20280;-56
2021/12/07 12:58:27;;;;;;;10.70;2.20;;;6.20;99.90;;;;;;5090767;28;20191;-58
2021/12/07 13:01:11;;;;;;;14.25;3.13;;;6.20;99.90;;;;;;5092130;28;20183;-57
2021/12/07 13:03:47;;;;;;;16.92;3.20;;;6.40;99.90;;;;;;5091848;28;20627;-57
2021/12/07 13:06:24;;;;;;;16.33;3.40;;;6.50;99.90;;;;;;5091573;28;20415;-57
2021/12/07 13:08:51;;;;;;;6.07;1.88;;;6.60;99.90;;;;;;5091824;28;20233;-57
2021/12/07 13:11:38;;;;;;;13.70;1.70;;;6.60;99.90;;;;;;5092007;28;20230;-57
2021/12/07 13:14:07;;;;;;;52.45;6.68;;;6.50;99.90;;;;;;5091958;28;20168;-57
2021/12/07 13:16:34;;;;;;;26.08;3.95;;;6.50;99.90;;;;;;5091807;28;20172;-57
2021/12/07 13:19:09;;;;;;;6.72;2.33;;;6.60;99.90;;;;;;5091971;28;20642;-57
2021/12/07 13:21:40;;;;;;;4.32;1.20;;;6.60;99.90;;;;;;5091823;28;20245;-57
2021/12/07 13:24:15;;;;;;;2.30;1.10;;;6.50;99.90;;;;;;5091759;28;20282;-57
2021/12/07 13:26:44;;;;;;;5.20;1.63;;;6.40;99.90;;;;;;5091707;28;20677;-57
2021/12/07 13:29:18;;;;;;;20.48;3.67;;;6.40;99.90;;;;;;5091666;28;20563;-57
2021/12/07 13:31:47;;;;;;;6.90;1.70;;;6.40;99.90;;;;;;5091595;28;20175;-57
2021/12/07 13:34:15;;;;;;;6.53;1.58;;;6.30;99.90;;;;;;5091756;28;20670;-57
2021/12/07 13:36:46;;;;;;;4.93;2.00;;;6.30;99.90;;;;;;5091443;28;20176;-57
2021/12/07 13:39:16;;;;;;;4.45;1.88;;;6.30;99.90;;;;;;5091665;28;20180;-58
2021/12/07 13:42:12;;;;;;;5.63;1.50;;;6.30;99.90;;;;;;5091824;28;20175;-57
2021/12/07 13:44:49;;;;;;;11.70;3.10;;;6.20;99.90;;;;;;5091542;28;20187;-58
2021/12/07 13:47:20;;;;;;;5.63;1.52;;;6.30;99.90;;;;;;5091687;28;20265;-57
2021/12/07 13:49:53;;;;;;;5.60;2.03;;;6.30;99.90;;;;;;5091508;28;20783;-57
2021/12/07 13:52:25;;;;;;;3.53;1.33;;;6.30;99.90;;;;;;5091490;28;20199;-58
2021/12/07 13:54:54;;;;;;;4.25;1.60;;;6.30;99.90;;;;;;5091408;28;20216;-57
2021/12/07 13:57:24;;;;;;;2.65;1.80;;;6.20;99.90;;;;;;5090254;28;20177;-57
2021/12/07 14:00:26;;;;;;;3.80;1.38;;;6.20;99.90;;;;;;5091332;28;20238;-57
2021/12/07 14:03:01;;;;;;;4.78;1.30;;;6.20;99.90;;;;;;5091698;28;20206;-57
2021/12/07 14:05:32;;;;;;;3.30;0.95;;;6.20;99.90;;;;;;5091232;28;20183;-57
2021/12/07 14:08:01;;;;;;;4.93;1.42;;;6.10;99.90;;;;;;5091480;28;20180;-57
2021/12/07 14:10:41;;;;;;;5.47;1.75;;;6.10;99.90;;;;;;5091158;28;20544;-57
2021/12/07 14:13:07;;;;;;;6.20;1.58;;;6.10;99.90;;;;;;5091338;28;20180;-57
2021/12/07 14:15:35;;;;;;;6.10;1.50;;;6.00;99.90;;;;;;5091251;28;20176;-57
2021/12/07 14:18:10;;;;;;;4.70;1.73;;;6.00;99.90;;;;;;5092931;28;20172;-57
2021/12/07 14:20:42;;;;;;;6.65;1.38;;;5.90;99.90;;;;;;5094937;28;20171;-57
2021/12/07 14:23:26;;;;;;;12.27;1.63;;;5.90;99.90;;;;;;5094901;28;20186;-57
2021/12/07 14:25:54;;;;;;;2.47;1.38;;;5.80;99.90;;;;;;5094969;28;20204;-57
2021/12/07 14:28:29;;;;;;;6.30;2.10;;;5.80;99.90;;;;;;5093615;28;20172;-58
2021/12/07 14:31:20;;;;;;;2.88;1.95;;;5.90;99.90;;;;;;5094882;28;20186;-57
2021/12/07 14:33:56;;;;;;;4.80;2.75;;;5.90;99.90;;;;;;5093982;28;20192;-57
2021/12/07 14:36:34;;;;;;;5.82;2.60;;;5.90;99.90;;;;;;5094796;28;20194;-57
2021/12/07 14:39:09;;;;;;;7.43;2.30;;;6.00;99.90;;;;;;5094756;28;20207;-57
2021/12/07 14:41:42;;;;;;;7.78;2.90;;;6.00;99.90;;;;;;5094543;28;20189;-57
2021/12/07 14:44:09;;;;;;;5.20;3.17;;;6.00;99.90;;;;;;5093300;28;20666;-57
2021/12/07 14:46:35;;;;;;;7.43;2.67;;;6.00;99.90;;;;;;5094430;28;20247;-57
2021/12/07 14:49:02;;;;;;;6.80;2.35;;;6.00;99.90;;;;;;5094456;28;20172;-57
2021/12/07 14:51:30;;;;;;;6.82;2.35;;;5.90;99.90;;;;;;5094243;28;20256;-57
2021/12/07 14:54:01;;;;;;;10.60;3.78;;;5.90;99.90;;;;;;5094405;28;20172;-57